首页
METAR-TAF:

METAR-TAF

机场 :

阿尔伯特, 法国

纬度: 49-58-21N, 经度: 002-41-29E, 海拔: 111米

当前天气观测

该预报发布于26分钟前的13:30 UTC
风速3节,风向西转西南,在南转西南西之间变化
温度 9°C
湿度 66%
气压 1018 hPa
能见度10公里或以上
散云层高于4100英尺

METAR: LFAQ 191330Z AUTO 24003KT 200V280 9999 SCT041 09/03 Q1018 NOSIG

时间: 14:56 (13:56 UTC)

预报

该预报发布于2小时和56分钟前的11:00 UTC
预报有效从19日的 12点(UTC)到 19日的 21点(UTC)
风速5节,风向南转南东
能见度10公里或以上
散云层高于4000英尺
成为
从 19日的 19点(UTC)到 19日的 21点(UTC)
能見度: 3000
阴天层高于300英尺
轻雾
几率 30% :
短暂存在
从 19日的 19点(UTC)到 19日的 21点(UTC)
能見度: 0500

TAF: LFAQ 191100Z 1912/1921 15005KT 9999 SCT040 BECMG 1919/1921 3000 BR OVC003 PROB30 TEMPO 1919/1921 0500 FG VV///

超过4000个机场的气象观测和天气预报(METAR&TAF报告)。

可查询的气象台以黄色和红色小点在地图上表示。

将鼠标移到小点上方,可查看气象台名称。

然后点击查看天气观测和预报。

如需切换地图:点击带黑十字的绿色按钮放大地图;点击带横线的绿色按钮缩小地图;或者点击绿色箭头查看邻近地区的地图。


METAR-TAF: